Time;durP1;ratioP1;P1;durP2;ratioP2;P2;SDS_P1;SDS_P2;PMS_P1;PMS_P2;Temp;Humidity;BMP_temperature;BMP_pressure;BME280_temperature;BME280_humidity;BME280_pressure;Samples;Min_cycle;Max_cycle;Signal;HPM_P1;HPM_P2
2022/08/24 00:02:09;;;;;;;1.52;1.00;;;26.60;49.10;;;;;;5057211;28;20016;-76
2022/08/24 00:04:36;;;;;;;4.22;1.38;;;26.50;49.30;;;;;;5075488;28;20036;-77
2022/08/24 00:07:03;;;;;;;4.70;1.00;;;26.50;49.50;;;;;;5053968;28;20037;-78
2022/08/24 00:09:31;;;;;;;3.70;1.20;;;26.40;49.20;;;;;;5055149;28;20123;-78
2022/08/24 00:11:57;;;;;;;6.65;1.30;;;26.40;49.70;;;;;;5055386;28;20021;-77
2022/08/24 00:14:23;;;;;;;3.08;1.13;;;26.40;49.50;;;;;;5053796;28;20385;-78
2022/08/24 00:16:49;;;;;;;3.33;1.25;;;26.30;49.60;;;;;;5055210;28;20028;-76
2022/08/24 00:19:16;;;;;;;3.05;1.20;;;26.40;49.70;;;;;;5055004;28;20028;-76
2022/08/24 00:21:42;;;;;;;3.28;1.20;;;26.40;49.70;;;;;;5054906;28;20151;-78
2022/08/24 00:24:08;;;;;;;1.58;1.00;;;26.40;50.00;;;;;;5054916;28;20079;-76
2022/08/24 00:26:34;;;;;;;1.88;1.23;;;26.30;49.70;;;;;;5054928;28;20021;-75
2022/08/24 00:29:00;;;;;;;3.05;1.00;;;26.20;50.10;;;;;;5055192;28;20037;-77
2022/08/24 00:31:26;;;;;;;1.10;0.90;;;26.20;49.90;;;;;;5054072;28;20032;-76
2022/08/24 00:33:55;;;;;;;2.88;1.20;;;26.10;49.90;;;;;;5053985;28;20025;-77
2022/08/24 00:36:23;;;;;;;3.75;1.10;;;26.10;50.20;;;;;;5054243;28;20060;-76
2022/08/24 00:38:50;;;;;;;1.98;1.17;;;26.00;50.60;;;;;;5053865;28;20537;-77
2022/08/24 00:41:16;;;;;;;2.60;1.15;;;25.90;50.50;;;;;;5053788;28;20575;-76
2022/08/24 00:43:57;;;;;;;1.40;0.90;;;25.90;51.00;;;;;;5053633;28;20021;-76
2022/08/24 00:46:35;;;;;;;3.60;1.15;;;25.90;49.30;;;;;;5055000;28;20029;-76
2022/08/24 00:49:25;;;;;;;2.85;1.30;;;25.90;51.00;;;;;;5053555;28;20091;-75
2022/08/24 00:51:59;;;;;;;3.65;1.10;;;25.90;49.40;;;;;;5053511;28;20044;-76
2022/08/24 00:54:27;;;;;;;2.70;0.90;;;25.90;51.20;;;;;;5052826;28;20032;-77
2022/08/24 00:57:01;;;;;;;1.27;0.77;;;25.90;51.20;;;;;;5054768;28;20029;-77
2022/08/24 00:59:33;;;;;;;;;;;25.90;51.30;;;;;;5055470;28;20530;-76
2022/08/24 01:02:04;;;;;;;1.30;0.80;;;25.80;50.30;;;;;;5056286;28;19904;-75
2022/08/24 01:04:39;;;;;;;1.65;1.02;;;25.70;51.40;;;;;;5063030;28;20063;-75
2022/08/24 01:07:05;;;;;;;2.15;0.90;;;25.70;51.60;;;;;;5068487;28;20054;-76
2022/08/24 01:09:31;;;;;;;2.35;0.95;;;25.70;51.40;;;;;;5076016;28;20033;-76
2022/08/24 01:11:57;;;;;;;6.25;1.15;;;25.70;51.60;;;;;;5056519;28;20099;-74
2022/08/24 01:14:23;;;;;;;2.72;0.70;;;25.70;51.90;;;;;;5074306;28;20024;-77
2022/08/24 01:19:43;;;;;;;0.75;0.52;;;25.50;52.00;;;;;;5074569;28;20040;-78
2022/08/24 01:22:41;;;;;;;1.27;0.70;;;25.50;52.30;;;;;;5056279;28;20016;-78
2022/08/24 01:25:08;;;;;;;2.78;0.80;;;25.40;52.80;;;;;;5042474;28;20097;-76
2022/08/24 01:27:36;;;;;;;2.45;0.70;;;25.40;52.40;;;;;;5073844;28;20024;-75
2022/08/24 01:30:07;;;;;;;3.42;0.60;;;25.30;52.60;;;;;;5073876;28;20566;-76
2022/08/24 01:32:34;;;;;;;1.80;0.70;;;25.30;52.60;;;;;;5055988;28;20032;-78
2022/08/24 01:35:00;;;;;;;1.85;0.77;;;25.30;52.70;;;;;;5073701;28;20025;-75
2022/08/24 01:37:26;;;;;;;1.17;0.73;;;25.30;53.00;;;;;;5073942;28;20025;-76
2022/08/24 01:39:56;;;;;;;1.00;0.68;;;25.30;52.90;;;;;;5055948;28;20028;-76
2022/08/24 01:42:22;;;;;;;2.05;0.75;;;25.20;53.30;;;;;;5073479;28;20019;-76
2022/08/24 01:44:47;;;;;;;1.20;0.70;;;25.20;53.20;;;;;;5073235;28;20123;-76
2022/08/24 01:47:15;;;;;;;1.77;0.80;;;25.20;53.20;;;;;;5055411;28;20025;-76
2022/08/24 01:49:44;;;;;;;4.55;0.80;;;25.20;53.30;;;;;;5055361;28;20058;-76
2022/08/24 01:52:13;;;;;;;2.60;0.80;;;25.20;53.60;;;;;;5073172;28;20092;-77
2022/08/24 01:54:39;;;;;;;3.67;0.80;;;25.20;53.60;;;;;;5073070;28;20420;-76
2022/08/24 01:57:06;;;;;;;2.05;1.02;;;25.20;53.70;;;;;;5073381;28;20020;-76
2022/08/24 01:59:32;;;;;;;3.78;0.75;;;25.30;53.40;;;;;;5073404;28;20574;-75
2022/08/24 02:02:03;;;;;;;1.80;0.90;;;25.20;53.30;;;;;;5072701;28;20025;-75
2022/08/24 02:04:28;;;;;;;0.93;0.80;;;25.20;53.50;;;;;;5054738;28;20037;-75
2022/08/24 02:06:54;;;;;;;2.17;0.60;;;25.20;53.50;;;;;;5070560;28;20036;-75
2022/08/24 02:09:20;;;;;;;1.63;0.63;;;25.20;53.50;;;;;;5072589;28;20093;-75
2022/08/24 02:11:47;;;;;;;2.80;0.90;;;25.20;53.70;;;;;;5072849;28;20020;-77
2022/08/24 02:14:13;;;;;;;1.60;0.60;;;25.20;53.70;;;;;;5072724;28;20036;-73
2022/08/24 02:16:39;;;;;;;1.65;0.70;;;25.10;53.80;;;;;;5054770;28;20077;-74
2022/08/24 02:19:05;;;;;;;1.27;0.70;;;25.10;53.80;;;;;;5072684;28;20100;-78
2022/08/24 02:21:31;;;;;;;3.65;0.90;;;25.00;54.00;;;;;;5072538;28;20028;-76
2022/08/24 02:23:57;;;;;;;1.42;0.73;;;25.00;54.20;;;;;;5054526;28;20017;-75
2022/08/24 02:26:23;;;;;;;2.10;0.70;;;25.00;54.10;;;;;;5072576;28;20069;-77
2022/08/24 02:28:48;;;;;;;3.78;0.65;;;25.00;54.40;;;;;;5072526;28;20037;-76
2022/08/24 02:31:14;;;;;;;1.55;0.60;;;25.00;54.40;;;;;;5071346;28;20433;-76
2022/08/24 02:33:40;;;;;;;2.15;0.75;;;25.00;54.40;;;;;;5072456;28;20575;-77
2022/08/24 02:36:08;;;;;;;2.85;0.73;;;25.00;54.40;;;;;;5054748;28;20056;-76
2022/08/24 02:38:34;;;;;;;1.90;0.70;;;25.00;54.30;;;;;;5054556;28;20024;-75
2022/08/24 02:41:00;;;;;;;1.88;0.70;;;25.00;54.40;;;;;;5072636;28;20046;-78
2022/08/24 02:43:26;;;;;;;1.63;0.50;;;25.00;54.40;;;;;;5054472;28;20103;-77
2022/08/24 02:45:51;;;;;;;1.95;0.60;;;24.90;54.60;;;;;;5072324;28;20377;-76
2022/08/24 02:48:18;;;;;;;1.40;0.70;;;24.90;54.60;;;;;;5072335;28;20119;-76
2022/08/24 02:50:48;;;;;;;1.13;0.70;;;24.80;54.90;;;;;;5072479;28;20029;-78
2022/08/24 02:53:16;;;;;;;3.50;0.82;;;24.70;54.60;;;;;;5073956;28;20025;-77
2022/08/24 02:55:42;;;;;;;0.93;0.60;;;24.70;55.10;;;;;;5072866;28;20150;-77
2022/08/24 02:58:10;;;;;;;1.48;0.70;;;24.60;55.40;;;;;;5055240;28;20465;-77
2022/08/24 03:00:37;;;;;;;2.75;0.63;;;24.60;55.50;;;;;;5072818;28;20052;-75
2022/08/24 03:03:03;;;;;;;1.42;0.65;;;24.60;55.40;;;;;;5054454;28;20098;-76
2022/08/24 03:05:29;;;;;;;3.90;0.80;;;24.60;55.40;;;;;;5072276;28;20086;-76
2022/08/24 03:07:56;;;;;;;1.17;0.77;;;24.60;55.40;;;;;;5072005;28;20048;-76
2022/08/24 03:10:23;;;;;;;1.20;0.63;;;24.60;55.70;;;;;;5072069;28;20090;-74
2022/08/24 03:12:49;;;;;;;1.17;0.63;;;24.60;55.80;;;;;;5072141;28;20025;-75
2022/08/24 03:15:17;;;;;;;0.77;0.57;;;24.60;55.80;;;;;;5071932;28;20021;-76
2022/08/24 03:17:44;;;;;;;2.28;0.60;;;24.60;55.80;;;;;;5073986;28;20021;-77
2022/08/24 03:20:19;;;;;;;1.40;0.60;;;24.50;55.40;;;;;;5058091;28;20681;-77
2022/08/24 03:22:45;;;;;;;2.80;0.82;;;24.50;56.00;;;;;;5076038;28;20078;-77
2022/08/24 03:25:12;;;;;;;3.35;0.77;;;24.40;55.90;;;;;;5075818;28;20414;-76
2022/08/24 03:27:39;;;;;;;1.77;0.90;;;24.40;56.30;;;;;;5076198;28;20024;-77
2022/08/24 03:30:11;;;;;;;0.80;0.60;;;24.40;56.30;;;;;;5075784;28;20098;-76
2022/08/24 03:32:37;;;;;;;1.77;0.70;;;24.30;56.20;;;;;;5076015;28;20023;-78
2022/08/24 03:35:03;;;;;;;2.67;0.70;;;24.30;56.60;;;;;;5075710;28;20029;-76
2022/08/24 03:37:29;;;;;;;2.65;0.82;;;24.30;56.50;;;;;;5075677;28;20021;-76
2022/08/24 03:39:55;;;;;;;2.83;0.82;;;24.20;57.20;;;;;;5075774;28;20392;-77
2022/08/24 03:42:20;;;;;;;2.03;0.98;;;24.20;56.80;;;;;;5075662;28;20571;-77
2022/08/24 03:44:46;;;;;;;1.85;0.77;;;24.20;56.80;;;;;;5074374;28;20029;-77
2022/08/24 03:47:12;;;;;;;4.40;0.82;;;24.10;57.00;;;;;;5075632;28;20051;-76
2022/08/24 03:49:38;;;;;;;2.15;0.93;;;24.10;57.10;;;;;;5075598;28;20549;-76
2022/08/24 03:52:05;;;;;;;1.73;0.60;;;24.10;57.30;;;;;;5075664;28;20092;-78
2022/08/24 03:54:31;;;;;;;0.70;0.60;;;24.10;57.20;;;;;;5075570;28;20473;-77
2022/08/24 03:56:57;;;;;;;1.48;0.73;;;24.20;57.50;;;;;;5057612;28;20059;-77
2022/08/24 03:59:24;;;;;;;2.35;0.90;;;24.20;57.10;;;;;;5057498;28;20401;-77
2022/08/24 04:01:50;;;;;;;3.25;1.10;;;24.20;57.30;;;;;;5057727;28;20024;-77
2022/08/24 04:04:16;;;;;;;1.40;0.93;;;24.20;57.30;;;;;;5075226;28;20033;-76
2022/08/24 04:06:45;;;;;;;2.75;0.80;;;24.30;57.40;;;;;;5075158;28;20143;-75
2022/08/24 04:09:12;;;;;;;3.70;0.90;;;24.20;57.20;;;;;;5057121;28;20480;-77
2022/08/24 04:11:39;;;;;;;1.98;0.80;;;24.10;57.30;;;;;;5057752;28;20350;-76
2022/08/24 04:14:07;;;;;;;1.88;0.60;;;24.10;57.70;;;;;;5075561;28;20151;-76
2022/08/24 04:16:32;;;;;;;4.20;0.90;;;24.00;57.90;;;;;;5075770;28;20338;-76
2022/08/24 04:18:58;;;;;;;2.78;1.00;;;24.00;58.10;;;;;;5076648;28;20092;-77
2022/08/24 04:21:27;;;;;;;2.70;0.80;;;24.10;58.00;;;;;;5080451;28;20036;-77
2022/08/24 04:23:53;;;;;;;3.33;0.88;;;24.00;57.90;;;;;;5088329;28;20032;-76
2022/08/24 04:26:21;;;;;;;2.90;1.00;;;24.00;58.00;;;;;;5060094;28;20028;-75
2022/08/24 04:28:46;;;;;;;5.43;0.80;;;24.10;58.20;;;;;;5055582;28;20033;-75
2022/08/24 04:31:14;;;;;;;3.92;0.68;;;24.10;58.00;;;;;;5074698;28;20027;-75
2022/08/24 04:33:40;;;;;;;1.00;0.63;;;24.00;57.90;;;;;;5074414;28;20031;-76
2022/08/24 04:36:08;;;;;;;2.28;0.85;;;24.10;58.00;;;;;;5056409;28;20452;-75
2022/08/24 04:38:35;;;;;;;2.60;0.90;;;24.10;58.00;;;;;;5074402;28;20424;-75
2022/08/24 04:41:04;;;;;;;1.77;0.82;;;24.00;58.00;;;;;;5074410;28;20029;-74
2022/08/24 04:43:29;;;;;;;4.53;0.82;;;24.00;58.10;;;;;;5074447;28;20028;-75
2022/08/24 04:45:55;;;;;;;4.00;0.90;;;24.00;58.30;;;;;;5074469;28;20021;-75
2022/08/24 04:48:21;;;;;;;2.63;0.70;;;24.10;58.20;;;;;;5073697;28;20031;-76
2022/08/24 04:50:48;;;;;;;2.70;0.80;;;24.10;58.10;;;;;;5074480;28;20085;-76
2022/08/24 04:53:14;;;;;;;2.10;0.93;;;24.10;58.20;;;;;;5056469;28;20027;-76
2022/08/24 04:55:46;;;;;;;2.60;0.95;;;24.10;58.30;;;;;;5074261;28;20025;-76
2022/08/24 04:58:13;;;;;;;3.05;0.95;;;24.10;58.30;;;;;;5074296;28;20021;-75
2022/08/24 05:00:39;;;;;;;2.22;1.00;;;24.10;58.30;;;;;;5074119;28;20052;-77
2022/08/24 05:03:05;;;;;;;3.35;0.80;;;24.10;58.30;;;;;;5056182;28;20025;-77
2022/08/24 05:05:32;;;;;;;2.28;0.80;;;24.20;58.20;;;;;;5074020;28;20106;-75
2022/08/24 05:07:58;;;;;;;3.90;1.08;;;24.10;58.30;;;;;;5073825;28;20555;-74
2022/08/24 05:10:24;;;;;;;4.22;1.00;;;24.20;58.20;;;;;;5055726;28;20040;-76
2022/08/24 05:12:49;;;;;;;4.38;1.15;;;24.30;58.10;;;;;;5056067;28;20077;-76
2022/08/24 05:15:15;;;;;;;5.22;1.25;;;24.30;58.00;;;;;;5073752;28;20396;-76
2022/08/24 05:17:42;;;;;;;3.42;1.00;;;24.30;58.20;;;;;;5073918;28;20028;-75
2022/08/24 05:20:10;;;;;;;4.80;1.25;;;24.30;58.00;;;;;;5074298;28;20032;-76
2022/08/24 05:22:36;;;;;;;2.85;1.20;;;24.30;58.20;;;;;;5074516;28;20206;-75
2022/08/24 05:25:04;;;;;;;2.53;1.30;;;24.30;58.10;;;;;;5057037;28;20037;-75
2022/08/24 05:27:31;;;;;;;3.78;1.00;;;24.40;58.30;;;;;;5073635;28;20052;-74
2022/08/24 05:29:57;;;;;;;2.97;1.08;;;24.40;57.70;;;;;;5073377;28;20503;-75
2022/08/24 05:32:22;;;;;;;1.75;0.80;;;24.40;57.70;;;;;;5073548;28;20049;-75
2022/08/24 05:34:48;;;;;;;3.72;1.05;;;24.40;57.80;;;;;;5055412;28;20469;-76
2022/08/24 05:37:14;;;;;;;4.13;1.08;;;24.50;57.80;;;;;;5073376;28;20365;-76
2022/08/24 05:39:40;;;;;;;4.32;0.95;;;24.50;57.90;;;;;;5055296;28;20036;-76
2022/08/24 05:42:06;;;;;;;6.57;1.23;;;24.60;57.80;;;;;;5055246;28;20099;-76
2022/08/24 05:44:32;;;;;;;3.65;1.33;;;24.60;57.50;;;;;;5054958;28;20408;-76
2022/08/24 05:46:59;;;;;;;2.17;0.90;;;24.70;57.50;;;;;;5073221;28;20100;-75
2022/08/24 05:49:26;;;;;;;4.93;1.23;;;24.80;57.70;;;;;;5055156;28;20040;-74
2022/08/24 05:51:52;;;;;;;1.85;1.00;;;24.80;57.50;;;;;;5055137;28;20016;-76
2022/08/24 05:54:19;;;;;;;5.53;1.45;;;24.90;57.40;;;;;;5073299;28;20028;-76
2022/08/24 05:56:45;;;;;;;4.07;1.15;;;24.90;57.30;;;;;;5073153;28;20307;-76
2022/08/24 05:59:13;;;;;;;4.45;1.00;;;25.00;57.00;;;;;;5073294;28;20029;-76
2022/08/24 06:01:40;;;;;;;3.03;0.90;;;25.10;57.20;;;;;;5073444;28;20373;-75
2022/08/24 06:04:06;;;;;;;2.45;1.10;;;25.10;56.80;;;;;;5073117;28;20040;-75
2022/08/24 06:06:32;;;;;;;6.30;1.20;;;25.20;56.80;;;;;;5072842;28;20045;-75
2022/08/24 06:08:59;;;;;;;5.57;1.27;;;25.40;56.40;;;;;;5072874;28;20060;-75
2022/08/24 06:11:31;;;;;;;4.40;0.90;;;25.60;56.10;;;;;;5073091;28;20074;-75
2022/08/24 06:14:02;;;;;;;4.25;1.25;;;25.80;56.00;;;;;;5073063;28;20025;-81
2022/08/24 06:16:28;;;;;;;4.25;1.17;;;26.10;55.10;;;;;;5055789;28;20073;-80
2022/08/24 06:18:55;;;;;;;5.30;1.08;;;26.50;54.20;;;;;;5073776;28;20027;-78
2022/08/24 06:21:26;;;;;;;3.55;1.20;;;27.00;53.70;;;;;;5052842;28;20154;-83
2022/08/24 06:23:52;;;;;;;4.05;1.38;;;27.50;53.10;;;;;;5072242;28;20024;-81
2022/08/24 06:29:05;;;;;;;5.65;1.52;;;28.00;51.40;;;;;;5072915;28;20055;-79
2022/08/24 06:31:36;;;;;;;5.75;1.50;;;28.10;49.30;;;;;;5072954;28;20061;-80
2022/08/24 06:34:01;;;;;;;6.63;1.60;;;28.20;50.60;;;;;;5071690;28;20036;-79
2022/08/24 06:36:27;;;;;;;5.78;1.40;;;28.30;51.20;;;;;;5072919;28;20021;-74
2022/08/24 06:38:52;;;;;;;4.97;1.60;;;28.30;50.50;;;;;;5072845;28;20104;-74
2022/08/24 06:41:19;;;;;;;3.28;1.48;;;28.50;50.20;;;;;;5071315;28;20381;-75
2022/08/24 06:43:45;;;;;;;5.15;1.27;;;28.70;49.90;;;;;;5072282;28;20536;-75
2022/08/24 06:46:11;;;;;;;6.88;1.48;;;28.90;49.10;;;;;;5054419;28;20020;-73
2022/08/24 06:48:37;;;;;;;6.93;1.50;;;28.90;48.90;;;;;;5072561;28;20036;-73
2022/08/24 06:51:11;;;;;;;5.22;1.45;;;28.90;48.70;;;;;;5072494;28;20029;-74
2022/08/24 06:53:37;;;;;;;4.88;1.40;;;29.10;47.30;;;;;;5068669;28;20043;-74
2022/08/24 06:56:04;;;;;;;4.18;1.50;;;29.20;48.60;;;;;;5054222;28;20115;-75
2022/08/24 06:58:30;;;;;;;4.00;1.30;;;29.30;48.50;;;;;;5072571;28;20025;-74
2022/08/24 07:00:56;;;;;;;3.10;1.30;;;29.50;48.20;;;;;;5072373;28;20546;-75
2022/08/24 07:03:23;;;;;;;10.63;1.70;;;29.70;47.80;;;;;;5072480;28;20016;-75
2022/08/24 07:05:54;;;;;;;5.40;1.52;;;29.90;47.80;;;;;;5072409;28;20441;-75
2022/08/24 07:08:21;;;;;;;4.07;1.70;;;29.90;47.20;;;;;;5072768;28;20112;-76
2022/08/24 07:10:47;;;;;;;3.90;1.48;;;29.90;47.30;;;;;;5072369;28;20059;-76
2022/08/24 07:13:13;;;;;;;5.10;1.73;;;29.80;47.30;;;;;;5054352;28;20040;-76
2022/08/24 07:15:40;;;;;;;5.68;1.60;;;29.80;47.20;;;;;;5072392;28;20528;-74
2022/08/24 07:18:10;;;;;;;9.73;1.90;;;29.80;47.60;;;;;;5072206;28;20021;-73
2022/08/24 07:20:36;;;;;;;5.43;1.55;;;29.90;47.20;;;;;;5072340;28;20418;-72
2022/08/24 07:23:04;;;;;;;6.68;1.60;;;30.00;47.10;;;;;;5072173;28;20357;-71
2022/08/24 07:25:30;;;;;;;6.05;1.45;;;29.90;47.10;;;;;;5072213;28;20048;-68
2022/08/24 07:27:58;;;;;;;10.95;1.60;;;29.90;47.30;;;;;;5072348;28;20177;-68
2022/08/24 07:30:24;;;;;;;3.10;1.10;;;29.80;46.90;;;;;;5072055;28;20092;-67
2022/08/24 07:32:50;;;;;;;4.05;1.30;;;29.90;47.40;;;;;;5071900;28;20021;-67
2022/08/24 07:35:16;;;;;;;4.60;1.50;;;29.90;47.10;;;;;;5071853;28;20020;-68
2022/08/24 07:37:42;;;;;;;11.77;2.05;;;29.90;47.00;;;;;;5053733;28;20081;-67
2022/08/24 07:40:08;;;;;;;9.18;2.17;;;29.90;47.00;;;;;;5072007;28;20510;-67
2022/08/24 07:42:34;;;;;;;7.18;1.85;;;29.70;47.20;;;;;;5071747;28;20020;-67
2022/08/24 07:45:00;;;;;;;4.13;1.40;;;29.70;47.30;;;;;;5069865;28;20406;-70
2022/08/24 07:47:26;;;;;;;6.78;2.30;;;29.60;47.40;;;;;;5072035;28;20073;-68
2022/08/24 07:49:52;;;;;;;4.25;1.45;;;29.60;47.30;;;;;;5071833;28;20032;-66
2022/08/24 07:52:18;;;;;;;6.68;1.58;;;29.60;47.40;;;;;;5053900;28;20021;-69
2022/08/24 07:54:44;;;;;;;4.07;1.48;;;29.60;47.50;;;;;;5071413;28;20055;-70
2022/08/24 07:57:11;;;;;;;5.03;1.70;;;29.60;47.40;;;;;;5071901;28;20139;-68
2022/08/24 07:59:37;;;;;;;4.40;1.83;;;29.60;47.20;;;;;;5072190;28;20029;-68
2022/08/24 08:02:04;;;;;;;4.85;1.77;;;29.70;47.20;;;;;;5054110;28;20112;-68
2022/08/24 08:04:32;;;;;;;6.82;1.85;;;29.80;47.50;;;;;;5055056;28;20025;-68
2022/08/24 08:06:59;;;;;;;3.97;1.48;;;29.80;47.30;;;;;;5057461;28;20127;-67
2022/08/24 08:09:26;;;;;;;4.85;1.38;;;29.80;47.10;;;;;;5075407;28;20044;-66
2022/08/24 08:11:51;;;;;;;4.28;1.70;;;29.70;47.60;;;;;;5057264;28;20024;-69
2022/08/24 08:14:17;;;;;;;3.15;1.48;;;29.60;47.50;;;;;;5075260;28;20050;-69
2022/08/24 08:16:43;;;;;;;5.88;1.88;;;29.60;47.90;;;;;;5074799;28;20028;-71
2022/08/24 08:19:09;;;;;;;4.20;1.60;;;29.50;48.10;;;;;;5075184;28;20078;-74
2022/08/24 08:24:28;;;;;;;5.28;1.70;;;29.30;47.10;;;;;;5075277;28;20035;-69
2022/08/24 08:26:54;;;;;;;6.20;2.33;;;29.10;48.80;;;;;;5074864;28;20025;-71
2022/08/24 08:29:20;;;;;;;7.90;2.30;;;29.10;48.90;;;;;;5074593;28;20016;-70
2022/08/24 08:31:46;;;;;;;5.45;1.75;;;29.10;49.40;;;;;;5074942;28;20033;-67
2022/08/24 08:34:12;;;;;;;5.07;2.05;;;29.10;48.90;;;;;;5056877;28;20461;-69
2022/08/24 08:36:40;;;;;;;9.98;2.10;;;29.00;49.20;;;;;;5074606;28;20029;-68
2022/08/24 08:39:08;;;;;;;3.92;1.52;;;29.00;49.10;;;;;;5074733;28;20061;-68
2022/08/24 08:42:02;;;;;;;8.15;2.35;;;28.90;49.10;;;;;;5056553;28;20028;-69
2022/08/24 08:44:34;;;;;;;10.25;2.70;;;28.90;48.20;;;;;;5074193;28;20024;-69
2022/08/24 08:47:32;;;;;;;11.57;1.98;;;28.90;49.80;;;;;;5074746;28;20143;-69
2022/08/24 08:50:16;;;;;;;5.97;1.80;;;28.80;48.30;;;;;;5074574;28;20042;-71
2022/08/24 08:53:00;;;;;;;22.13;3.28;;;28.90;48.70;;;;;;5074670;28;20425;-69
2022/08/24 08:55:35;;;;;;;6.25;1.70;;;28.90;49.50;;;;;;5074243;28;20515;-69
2022/08/24 08:58:13;;;;;;;6.43;1.95;;;28.90;49.80;;;;;;5074469;28;20031;-69
2022/08/24 09:01:02;;;;;;;6.35;2.03;;;28.80;49.80;;;;;;5074205;28;20016;-68
2022/08/24 09:03:31;;;;;;;4.35;1.70;;;28.80;50.30;;;;;;5074216;28;20025;-69
2022/08/24 09:06:05;;;;;;;5.80;1.73;;;28.60;48.90;;;;;;5074326;28;20488;-70
2022/08/24 09:08:53;;;;;;;9.20;2.80;;;28.50;49.20;;;;;;5072760;28;20032;-70
2022/08/24 09:11:31;;;;;;;5.95;2.70;;;28.60;49.30;;;;;;5056161;28;20031;-74
2022/08/24 09:14:24;;;;;;;5.18;2.45;;;28.60;50.80;;;;;;5074010;28;20111;-69
2022/08/24 09:17:31;;;;;;;4.53;2.00;;;28.70;49.30;;;;;;5073979;28;20035;-68
2022/08/24 09:20:17;;;;;;;7.15;2.08;;;28.80;49.10;;;;;;5073818;28;20028;-69
2022/08/24 09:22:48;;;;;;;4.20;1.95;;;28.80;51.00;;;;;;5073265;28;20037;-71
2022/08/24 09:25:13;;;;;;;6.55;2.40;;;28.90;51.70;;;;;;5073601;28;20393;-69
2022/08/24 09:28:12;;;;;;;5.53;1.90;;;28.90;50.50;;;;;;5073438;28;20457;-68
2022/08/24 09:31:24;;;;;;;4.18;1.80;;;28.90;49.10;;;;;;5073829;28;20064;-69
2022/08/24 09:34:33;;;;;;;5.30;2.53;;;28.90;49.00;;;;;;5052098;28;20579;-70
2022/08/24 09:37:26;;;;;;;6.88;2.45;;;28.90;49.10;;;;;;5061940;28;20112;-70
2022/08/24 09:39:58;;;;;;;6.43;2.20;;;29.00;49.00;;;;;;5073632;28;20024;-71
2022/08/24 09:42:34;;;;;;;6.28;2.45;;;29.10;49.10;;;;;;5073483;28;20029;-70
2022/08/24 09:45:18;;;;;;;4.18;2.35;;;29.20;50.20;;;;;;5073022;28;20165;-70
2022/08/24 09:48:08;;;;;;;4.47;2.10;;;29.20;48.80;;;;;;5073438;28;20024;-68
2022/08/24 09:50:58;;;;;;;4.57;2.00;;;29.30;48.70;;;;;;5073232;28;20064;-72
2022/08/24 09:53:23;;;;;;;5.45;1.90;;;29.20;48.60;;;;;;5073486;28;20498;-73
2022/08/24 09:56:39;;;;;;;4.07;2.00;;;29.20;49.90;;;;;;5073373;28;20056;-74
2022/08/24 09:59:24;;;;;;;10.80;2.28;;;29.30;48.60;;;;;;4956394;28;20031;-71
2022/08/24 10:02:27;;;;;;;6.95;2.10;;;29.20;48.80;;;;;;5073197;28;20496;-75
2022/08/24 10:05:11;;;;;;;3.65;2.10;;;29.20;48.50;;;;;;5072966;28;20055;-69
2022/08/24 10:08:28;;;;;;;9.40;1.90;;;29.20;48.50;;;;;;5073058;28;20334;-68
2022/08/24 10:11:15;;;;;;;4.82;2.10;;;29.20;48.60;;;;;;5030936;28;20135;-69
2022/08/24 10:13:50;;;;;;;4.07;1.85;;;29.20;48.30;;;;;;5072947;28;20035;-68
2022/08/24 10:16:44;;;;;;;3.83;2.05;;;29.30;49.80;;;;;;5073376;28;20035;-69
2022/08/24 10:19:28;;;;;;;;;;;29.30;48.40;;;;;;5073180;28;20545;-69
2022/08/24 10:22:07;;;;;;;4.18;1.88;;;29.40;48.30;;;;;;5072698;28;19904;-68
2022/08/24 10:25:00;;;;;;;6.68;2.08;;;29.40;48.20;;;;;;5072815;28;20031;-68
2022/08/24 10:27:38;;;;;;;5.70;2.60;;;29.50;48.30;;;;;;5067888;28;20146;-68
2022/08/24 10:30:06;;;;;;;5.45;2.60;;;29.70;48.00;;;;;;5072763;28;20055;-68
2022/08/24 10:32:56;;;;;;;5.07;2.10;;;29.80;49.40;;;;;;5072542;28;20024;-68
2022/08/24 10:35:31;;;;;;;6.60;1.95;;;29.80;47.80;;;;;;5071031;28;20031;-70
2022/08/24 10:41:47;;;;;;;4.80;2.40;;;30.00;47.50;;;;;;5072854;28;20062;-69
2022/08/24 10:44:44;;;;;;;4.45;2.13;;;30.00;48.60;;;;;;5070597;28;20040;-70
2022/08/24 10:47:27;;;;;;;5.25;2.22;;;30.10;47.20;;;;;;5072653;28;20020;-71
2022/08/24 10:50:15;;;;;;;6.03;2.10;;;30.30;47.20;;;;;;5072607;28;20064;-68
2022/08/24 10:53:13;;;;;;;4.15;2.08;;;30.40;46.80;;;;;;5071209;28;20384;-68
2022/08/24 10:55:39;;;;;;;5.00;2.40;;;30.50;46.50;;;;;;5017375;28;20113;-70
2022/08/24 10:58:12;;;;;;;4.15;2.05;;;30.50;46.90;;;;;;5072548;28;20518;-69
2022/08/24 11:00:38;;;;;;;3.90;1.77;;;30.60;47.20;;;;;;5072336;28;20465;-72
2022/08/24 11:03:20;;;;;;;5.32;2.15;;;30.60;47.90;;;;;;5072728;28;20063;-70
2022/08/24 11:06:13;;;;;;;5.30;2.45;;;30.70;47.10;;;;;;5072486;28;20013;-69
2022/08/24 11:09:16;;;;;;;5.72;2.00;;;30.80;47.10;;;;;;5072312;28;20044;-71
2022/08/24 11:11:47;;;;;;;7.03;2.33;;;31.00;46.10;;;;;;5067563;28;20041;-68
2022/08/24 11:14:26;;;;;;;6.40;2.20;;;31.10;47.70;;;;;;5072400;28;20091;-76
2022/08/24 11:16:52;;;;;;;5.38;1.98;;;31.20;46.70;;;;;;5072185;28;20469;-74
2022/08/24 11:19:31;;;;;;;6.18;1.95;;;31.30;46.70;;;;;;5072363;28;20058;-69
2022/08/24 11:22:21;;;;;;;5.50;2.28;;;31.40;45.90;;;;;;5054245;28;20033;-70
2022/08/24 11:24:51;;;;;;;5.50;2.20;;;31.40;46.90;;;;;;5054597;28;20024;-70
2022/08/24 11:27:16;;;;;;;4.38;2.05;;;31.40;46.20;;;;;;5072605;28;20067;-71
2022/08/24 11:29:51;;;;;;;5.97;2.28;;;31.30;46.00;;;;;;5072597;28;20032;-69
2022/08/24 11:33:00;;;;;;;4.50;2.30;;;31.40;46.50;;;;;;5072476;28;20071;-71
2022/08/24 11:35:32;;;;;;;5.35;2.30;;;31.40;44.50;;;;;;5059264;28;20035;-70
2022/08/24 11:38:17;;;;;;;4.97;2.40;;;31.50;45.60;;;;;;5073081;28;20024;-72
2022/08/24 11:40:52;;;;;;;6.85;2.33;;;31.50;45.50;;;;;;5076472;28;20457;-71
2022/08/24 11:43:41;;;;;;;5.57;2.30;;;31.60;45.60;;;;;;5076066;28;20029;-74
2022/08/24 11:46:33;;;;;;;6.00;2.03;;;31.60;44.60;;;;;;5075863;28;20103;-72
2022/08/24 11:49:26;;;;;;;4.60;2.00;;;31.70;44.30;;;;;;5075435;28;20036;-70
2022/08/24 11:52:25;;;;;;;4.20;1.90;;;31.80;43.90;;;;;;5076068;28;20112;-69
2022/08/24 11:55:04;;;;;;;4.75;2.00;;;31.80;44.70;;;;;;5075599;28;20036;-68
2022/08/24 11:57:39;;;;;;;3.20;1.70;;;31.90;44.00;;;;;;5075730;28;20029;-72
2022/08/24 12:00:18;;;;;;;5.50;2.00;;;32.00;44.00;;;;;;5075805;28;20470;-71
2022/08/24 12:03:06;;;;;;;3.78;1.90;;;32.00;43.80;;;;;;5075982;28;20037;-69
2022/08/24 12:05:44;;;;;;;4.68;1.90;;;32.10;43.70;;;;;;5075566;28;20029;-68
2022/08/24 12:08:41;;;;;;;5.28;2.17;;;32.20;43.50;;;;;;5075134;28;20175;-69
2022/08/24 12:11:25;;;;;;;8.35;2.35;;;32.20;43.80;;;;;;5075508;28;20081;-71
2022/08/24 12:14:01;;;;;;;5.40;2.05;;;32.30;45.20;;;;;;5075555;28;20423;-68
2022/08/24 12:16:48;;;;;;;5.65;2.20;;;32.30;45.40;;;;;;5075453;28;20107;-69
2022/08/24 12:19:22;;;;;;;7.68;2.38;;;32.20;45.90;;;;;;5073791;28;20115;-70
2022/08/24 12:21:52;;;;;;;7.03;2.40;;;32.00;46.10;;;;;;5075342;28;20043;-69
2022/08/24 12:24:25;;;;;;;5.72;2.45;;;31.90;48.70;;;;;;5075732;28;20032;-70
2022/08/24 12:26:59;;;;;;;6.30;2.25;;;31.80;46.20;;;;;;5075664;28;20055;-69
2022/08/24 12:29:37;;;;;;;7.20;2.30;;;31.90;47.70;;;;;;5075615;28;20028;-71
2022/08/24 12:32:10;;;;;;;4.38;2.08;;;31.80;46.90;;;;;;5075929;28;20024;-72
2022/08/24 12:34:55;;;;;;;6.40;2.33;;;31.70;47.90;;;;;;5075525;28;20024;-69
2022/08/24 12:37:32;;;;;;;10.57;2.08;;;31.70;48.50;;;;;;5075495;28;20142;-70
2022/08/24 12:40:22;;;;;;;6.75;2.40;;;31.70;48.60;;;;;;5075456;28;20465;-70
2022/08/24 12:42:54;;;;;;;7.13;2.50;;;31.60;47.60;;;;;;5075359;28;20056;-69
2022/08/24 12:45:22;;;;;;;6.35;2.25;;;31.70;48.60;;;;;;5075202;28;20054;-69
2022/08/24 12:48:03;;;;;;;6.88;2.40;;;31.70;48.40;;;;;;5075297;28;20036;-70
2022/08/24 12:50:29;;;;;;;7.88;2.20;;;31.70;47.30;;;;;;5074935;28;20477;-71
2022/08/24 12:53:22;;;;;;;5.88;2.25;;;31.80;48.10;;;;;;5075539;28;20070;-68
2022/08/24 12:56:03;;;;;;;4.53;2.15;;;31.90;47.20;;;;;;5075238;28;20499;-72
2022/08/24 12:59:07;;;;;;;7.18;2.28;;;31.90;47.10;;;;;;5075816;28;20016;-69
2022/08/24 13:01:39;;;;;;;4.78;2.40;;;32.00;47.00;;;;;;5037572;28;20037;-68
2022/08/24 13:04:25;;;;;;;6.85;2.00;;;32.10;48.00;;;;;;5074975;28;20020;-70
2022/08/24 13:07:25;;;;;;;5.93;2.20;;;32.10;47.20;;;;;;5074816;28;20071;-68
2022/08/24 13:09:59;;;;;;;5.65;2.00;;;32.00;48.10;;;;;;5074738;28;20176;-72
2022/08/24 13:12:37;;;;;;;8.73;2.17;;;31.90;48.10;;;;;;5073645;28;20032;-69
2022/08/24 13:15:27;;;;;;;5.05;1.95;;;31.90;48.20;;;;;;5074465;28;20393;-73
2022/08/24 13:17:58;;;;;;;7.63;2.15;;;31.80;47.30;;;;;;5074486;28;20583;-68
2022/08/24 13:20:33;;;;;;;3.45;1.90;;;31.90;48.70;;;;;;5056857;28;20043;-69
2022/08/24 13:23:17;;;;;;;7.32;2.22;;;31.90;48.50;;;;;;5074117;28;20024;-70
2022/08/24 13:26:16;;;;;;;5.90;2.10;;;31.90;48.60;;;;;;5073993;28;20027;-70
2022/08/24 13:28:46;;;;;;;6.45;2.45;;;32.00;48.60;;;;;;5073997;28;20031;-69